Decoded Metar for PARC (ARCTIC VILLAGE in AK, USA) (IATA:ARC) | Meteo·Mobile Aviation Weather
aviador You're here:

PARC Decoded Metar

ARCTIC VILLAGE in AK, USA
Report Time2019-01-17 23:56:00
UTC Time2019-01-18 00:23:15
Flight Rules vfr VFR
Wind330° at 06 kt
W.Decomp.*RWY 02: 1.5 kt HW 5.8 kt LCW
W.Rank330° ranks 16
Current wind is above 330° avg. (5.1)
Visibility9999 m
Phenomena:N/A
Clouds:N/A
Expected CloudBase > 1,200 ft AGL from Temp-Dew spread
CeilingNone
Temp-29°C (ISA -40)
Dew Point-32°C (75% RH)
AAT-35.0°C
QNH1013 hPa
Density Alt-3,084 ft
Elevation2,087 ft
Report Wrong Elevation
Raw Report
PARC 172356Z AUTO 33006KT 10SM CLR M29/M32 A2991 RMK AO2 SLP237
T12941322 11278 21322 51004 FZRANO=

Extra information for PARC:More info

Airport Information Weather charts Add Link Nearby Venues Social comments

AIRNAV info for PARC